Terminal Aerodrome Forecast
Issued by NWS

Home | Current Version | Previous Version | Text Only | Print | Product List | Glossary On
Versions: 1 2 3 4 5 6 7 8 9 10 11 12 13
189
FTUS43 KOAX 261120
TAFBFF
TAF
KBFF 261120Z 2612/2712 11008KT P6SM SCT200
     FM261700 19006KT P6SM FEW070 SCT250
     FM262000 25008KT P6SM VCTS SCT060CB BKN250
     FM270200 03009KT P6SM SCT250=

USA.gov is the U.S. government's official web portal to all federal, state and local government web resources and services.